Time;durP1;ratioP1;P1;durP2;ratioP2;P2;SDS_P1;SDS_P2;PMS_P1;PMS_P2;Temp;Humidity;BMP_temperature;BMP_pressure;BME280_temperature;BME280_humidity;BME280_pressure;Samples;Min_cycle;Max_cycle;Signal;HPM_P1;HPM_P2
2022/08/08 00:00:14;;;;;;;1999.90;999.90;;;14.20;99.90;;;;;;5076268;28;20559;-60
2022/08/08 00:03:00;;;;;;;1999.90;999.90;;;14.20;99.90;;;;;;5063885;28;20040;-60
2022/08/08 00:05:42;;;;;;;1999.90;999.90;;;14.10;99.90;;;;;;5088114;28;20059;-60
2022/08/08 00:08:21;;;;;;;1999.90;999.90;;;14.00;99.90;;;;;;5075611;28;20525;-60
2022/08/08 00:11:12;;;;;;;1999.90;999.90;;;13.80;99.90;;;;;;5094617;28;20108;-60
2022/08/08 00:13:44;;;;;;;1999.90;999.90;;;13.80;99.90;;;;;;5093833;28;20429;-60
2022/08/08 00:16:22;;;;;;;1999.90;999.90;;;13.80;99.90;;;;;;5093364;28;20056;-60
2022/08/08 00:19:01;;;;;;;1999.90;999.90;;;13.80;99.90;;;;;;5094239;28;20401;-60
2022/08/08 00:21:35;;;;;;;1999.90;999.90;;;13.80;99.90;;;;;;5093094;28;20048;-60
2022/08/08 00:24:06;;;;;;;1999.90;999.90;;;13.70;99.90;;;;;;5052854;28;20124;-60
2022/08/08 00:26:37;;;;;;;1999.90;999.90;;;13.60;99.90;;;;;;5068794;28;20087;-60
2022/08/08 00:29:12;;;;;;;1999.90;999.90;;;13.60;99.90;;;;;;5072913;28;20437;-59
2022/08/08 00:31:43;;;;;;;1999.90;999.90;;;13.60;99.90;;;;;;5084693;28;20131;-60
2022/08/08 00:37:31;;;;;;;1999.90;999.90;;;13.40;99.90;;;;;;5092896;28;20141;-60
2022/08/08 00:40:12;;;;;;;1999.90;999.90;;;13.50;99.90;;;;;;5090616;28;20040;-60
2022/08/08 00:42:45;;;;;;;1999.90;999.90;;;13.50;99.90;;;;;;5072934;28;20049;-60
2022/08/08 00:45:29;;;;;;;1999.90;999.90;;;13.50;99.90;;;;;;5073328;28;20036;-60
2022/08/08 00:48:11;;;;;;;1999.90;999.90;;;13.50;99.90;;;;;;5073635;28;20094;-60
2022/08/08 00:51:10;;;;;;;1999.90;999.90;;;13.50;99.90;;;;;;5052713;28;20045;-60
2022/08/08 00:54:03;;;;;;;1999.90;999.90;;;13.50;99.90;;;;;;5018998;28;20076;-60
2022/08/08 00:56:54;;;;;;;1999.90;999.90;;;13.50;99.90;;;;;;5034872;28;20093;-60
2022/08/08 00:59:40;;;;;;;1999.90;999.90;;;13.50;99.90;;;;;;5053006;28;20049;-60
2022/08/08 01:02:44;;;;;;;1999.90;999.90;;;13.50;99.90;;;;;;5068369;28;20046;-60
2022/08/08 01:05:41;;;;;;;1999.90;999.90;;;13.60;99.90;;;;;;5034504;28;20160;-59
2022/08/08 01:08:52;;;;;;;1999.90;999.90;;;13.60;99.90;;;;;;5018451;28;20056;-60
2022/08/08 01:11:35;;;;;;;1999.90;999.90;;;13.50;99.90;;;;;;5034478;28;20045;-60
2022/08/08 01:14:30;;;;;;;1999.90;999.90;;;13.50;99.90;;;;;;5034969;28;20048;-60
2022/08/08 01:17:16;;;;;;;1999.90;999.90;;;13.50;99.90;;;;;;5071033;28;20131;-59
2022/08/08 01:20:17;;;;;;;1999.90;999.90;;;13.60;99.90;;;;;;5071924;28;20311;-59
2022/08/08 01:23:19;;;;;;;1999.90;999.90;;;13.60;99.90;;;;;;5072822;28;20060;-59
2022/08/08 01:26:04;;;;;;;1999.90;999.90;;;13.50;99.90;;;;;;5071451;28;20059;-60
2022/08/08 01:28:40;;;;;;;1999.90;999.90;;;13.40;99.90;;;;;;5055178;28;20372;-60
2022/08/08 01:31:18;;;;;;;1999.90;999.90;;;13.30;99.90;;;;;;5054851;28;20612;-60
2022/08/08 01:33:51;;;;;;;1999.90;999.90;;;13.30;99.90;;;;;;5049635;28;20040;-59
2022/08/08 01:36:35;;;;;;;1999.90;999.90;;;13.30;99.90;;;;;;5074513;28;20371;-60
2022/08/08 01:39:14;;;;;;;1999.90;999.90;;;13.20;99.90;;;;;;5074392;28;20150;-60
2022/08/08 01:41:58;;;;;;;1999.90;999.90;;;13.10;99.90;;;;;;5075575;28;20109;-60
2022/08/08 01:44:36;;;;;;;1999.90;999.90;;;13.10;99.90;;;;;;5071002;28;20040;-60
2022/08/08 01:47:09;;;;;;;1999.90;999.90;;;13.10;99.90;;;;;;5054064;28;20086;-59
2022/08/08 01:49:49;;;;;;;1999.90;999.90;;;13.10;99.90;;;;;;5054934;28;20045;-60
2022/08/08 01:52:34;;;;;;;1999.90;999.90;;;13.10;99.90;;;;;;5073661;28;20044;-60
2022/08/08 01:55:27;;;;;;;1999.90;999.90;;;13.10;99.90;;;;;;5091888;28;20043;-60
2022/08/08 01:58:01;;;;;;;1999.90;999.90;;;13.10;99.90;;;;;;5074891;28;20048;-59
2022/08/08 02:00:55;;;;;;;1999.90;999.90;;;13.10;99.90;;;;;;5073315;28;20040;-60
2022/08/08 02:03:49;;;;;;;1999.90;999.90;;;13.20;99.90;;;;;;5052449;28;20045;-59
2022/08/08 02:06:16;;;;;;;1999.90;999.90;;;13.20;99.90;;;;;;5036972;28;20049;-59
2022/08/08 02:08:58;;;;;;;1999.90;999.90;;;13.10;99.90;;;;;;5080701;28;20043;-60
2022/08/08 02:11:30;;;;;;;1999.90;999.90;;;13.10;99.90;;;;;;5074460;28;20040;-59
2022/08/08 02:14:18;;;;;;;1999.90;999.90;;;13.10;99.90;;;;;;5056864;28;20075;-60
2022/08/08 02:17:09;;;;;;;1999.90;999.90;;;13.20;99.90;;;;;;5092265;28;20044;-60
2022/08/08 02:19:44;;;;;;;1999.90;999.90;;;13.30;99.90;;;;;;5074547;28;20040;-59
2022/08/08 02:22:33;;;;;;;1999.90;999.90;;;13.30;99.90;;;;;;5070875;28;20059;-59
2022/08/08 02:25:26;;;;;;;1999.90;999.90;;;13.30;99.90;;;;;;5054552;28;20059;-60
2022/08/08 02:28:05;;;;;;;1999.90;999.90;;;13.30;99.90;;;;;;5033241;28;20087;-59
2022/08/08 02:30:57;;;;;;;1999.90;999.90;;;13.30;99.90;;;;;;5034450;28;20049;-59
2022/08/08 02:34:01;;;;;;;1999.90;999.90;;;13.30;99.90;;;;;;5051086;28;20051;-60
2022/08/08 02:36:37;;;;;;;1999.90;999.90;;;13.40;99.90;;;;;;5052263;28;20044;-60
2022/08/08 02:39:32;;;;;;;1999.90;999.90;;;13.40;99.90;;;;;;5037475;28;20054;-59
2022/08/08 02:42:08;;;;;;;1999.90;999.90;;;13.50;99.90;;;;;;5051401;28;20515;-60
2022/08/08 02:45:00;;;;;;;1999.90;999.90;;;13.60;99.90;;;;;;5059641;28;20077;-60
2022/08/08 02:48:16;;;;;;;1999.90;999.90;;;13.70;99.90;;;;;;5075652;28;20137;-60
2022/08/08 02:50:58;;;;;;;1999.90;999.90;;;13.60;99.90;;;;;;5077044;28;20044;-60
2022/08/08 02:53:29;;;;;;;1999.90;999.90;;;13.50;99.90;;;;;;5060330;28;20073;-60
2022/08/08 02:56:27;;;;;;;1999.90;999.90;;;13.40;99.90;;;;;;5096026;28;20044;-60
2022/08/08 02:59:09;;;;;;;1999.90;999.90;;;13.40;99.90;;;;;;5021074;28;20060;-60
2022/08/08 03:02:13;;;;;;;1999.90;999.90;;;13.40;99.90;;;;;;5066757;28;20048;-60
2022/08/08 03:05:18;;;;;;;1999.90;999.90;;;13.40;99.90;;;;;;5037087;28;20090;-60
2022/08/08 03:08:04;;;;;;;1999.90;999.90;;;13.40;99.90;;;;;;5055028;28;20044;-60
2022/08/08 03:11:01;;;;;;;1999.90;999.90;;;13.50;99.90;;;;;;5035816;28;20044;-59
2022/08/08 03:13:35;;;;;;;1999.90;999.90;;;13.60;99.90;;;;;;5076973;28;20131;-60
2022/08/08 03:16:17;;;;;;;1999.90;999.90;;;13.60;99.90;;;;;;5077484;28;20131;-60
2022/08/08 03:19:07;;;;;;;1999.90;999.90;;;13.50;99.90;;;;;;5076340;28;20090;-60
2022/08/08 03:21:32;;;;;;;1999.90;999.90;;;13.40;99.90;;;;;;5085928;28;20044;-59
2022/08/08 03:23:58;;;;;;;1999.90;999.90;;;13.40;99.90;;;;;;5068697;28;20045;-59
2022/08/08 03:26:30;;;;;;;1999.90;999.90;;;13.30;99.90;;;;;;5055876;28;20068;-60
2022/08/08 03:29:01;;;;;;;1999.90;999.90;;;13.30;99.90;;;;;;5074149;28;20040;-60
2022/08/08 03:34:14;;;;;;;1999.90;999.90;;;13.30;99.90;;;;;;5056403;28;20128;-60
2022/08/08 03:36:42;;;;;;;1999.90;999.90;;;13.30;99.90;;;;;;5058420;28;20060;-59
2022/08/08 03:39:12;;;;;;;1999.90;999.90;;;13.30;99.90;;;;;;5039522;28;20119;-59
2022/08/08 03:41:39;;;;;;;1999.90;999.90;;;13.30;99.90;;;;;;5056602;28;20067;-60
2022/08/08 03:44:05;;;;;;;1999.90;999.90;;;13.30;99.90;;;;;;5039816;28;20048;-59
2022/08/08 03:46:46;;;;;;;1999.90;999.90;;;13.30;99.90;;;;;;5059977;28;20044;-60
2022/08/08 03:49:19;;;;;;;1999.90;999.90;;;13.30;99.90;;;;;;5056566;28;20600;-60
2022/08/08 03:51:50;;;;;;;1999.90;999.90;;;13.40;99.90;;;;;;5074609;28;20036;-60
2022/08/08 03:54:16;;;;;;;1999.90;999.90;;;13.50;99.90;;;;;;5055805;28;20044;-60
2022/08/08 03:56:42;;;;;;;1999.90;999.90;;;13.50;99.90;;;;;;5056459;28;20048;-60
2022/08/08 03:59:08;;;;;;;1999.90;999.90;;;13.50;99.90;;;;;;5056598;28;20127;-60
2022/08/08 04:01:39;;;;;;;1999.90;999.90;;;13.50;99.90;;;;;;5041895;28;20050;-60
2022/08/08 04:04:05;;;;;;;1999.90;999.90;;;13.50;99.90;;;;;;5071929;28;20048;-60
2022/08/08 04:06:38;;;;;;;1999.90;999.90;;;13.60;99.90;;;;;;5093535;28;20059;-60
2022/08/08 04:09:07;;;;;;;1999.90;999.90;;;13.50;99.90;;;;;;5076509;28;20044;-60
2022/08/08 04:11:38;;;;;;;1999.90;999.90;;;13.50;99.90;;;;;;5075640;28;20044;-60
2022/08/08 04:14:04;;;;;;;1999.90;999.90;;;13.50;99.90;;;;;;5075815;28;20047;-60
2022/08/08 04:16:31;;;;;;;1999.90;999.90;;;13.40;99.90;;;;;;5076466;28;20047;-60
2022/08/08 04:18:57;;;;;;;1999.90;999.90;;;13.50;99.90;;;;;;5075581;28;20490;-60
2022/08/08 04:21:23;;;;;;;1999.90;999.90;;;13.50;99.90;;;;;;5048003;28;20055;-60
2022/08/08 04:23:49;;;;;;;1999.90;999.90;;;13.60;99.90;;;;;;5076261;28;20040;-60
2022/08/08 04:26:15;;;;;;;1999.90;999.90;;;13.60;99.90;;;;;;5060100;28;20052;-60
2022/08/08 04:28:41;;;;;;;1999.90;999.90;;;13.60;99.90;;;;;;5053081;28;20045;-60
2022/08/08 04:31:08;;;;;;;1999.90;999.90;;;13.70;99.90;;;;;;5086569;28;20464;-60
2022/08/08 04:33:35;;;;;;;1999.90;999.90;;;13.80;99.90;;;;;;5075612;28;20051;-60
2022/08/08 04:36:01;;;;;;;1999.90;999.90;;;13.80;99.90;;;;;;5049144;28;20426;-60
2022/08/08 04:38:26;;;;;;;1999.90;999.90;;;13.90;99.90;;;;;;5059016;28;20040;-59
2022/08/08 04:40:55;;;;;;;1999.90;999.90;;;14.00;99.90;;;;;;5065210;28;20048;-60
2022/08/08 04:43:23;;;;;;;1999.90;999.90;;;14.00;99.90;;;;;;5038014;28;20131;-60
2022/08/08 04:45:52;;;;;;;1999.90;999.90;;;14.10;99.90;;;;;;5055657;28;20080;-60
2022/08/08 04:48:18;;;;;;;1999.90;999.90;;;14.10;99.90;;;;;;5085295;28;20113;-60
2022/08/08 04:50:44;;;;;;;1999.90;999.90;;;14.20;99.90;;;;;;5092770;28;20044;-60
2022/08/08 04:53:12;;;;;;;1999.90;999.90;;;14.30;99.90;;;;;;5058760;28;20052;-60
2022/08/08 04:55:39;;;;;;;1999.90;999.90;;;14.30;99.90;;;;;;5074583;28;20526;-60
2022/08/08 04:58:06;;;;;;;1999.90;999.90;;;14.30;99.90;;;;;;5057859;28;20067;-60
2022/08/08 05:00:31;;;;;;;1999.90;999.90;;;14.30;99.90;;;;;;5093244;28;20040;-60
2022/08/08 05:02:58;;;;;;;1999.90;999.90;;;14.40;99.90;;;;;;5056778;28;20136;-60
2022/08/08 05:05:24;;;;;;;1999.90;999.90;;;14.40;99.90;;;;;;5048874;28;20044;-60
2022/08/08 05:07:50;;;;;;;1999.90;999.90;;;14.40;99.90;;;;;;5075447;28;20051;-60
2022/08/08 05:10:16;;;;;;;1999.90;999.90;;;14.40;99.90;;;;;;5074209;28;20122;-60
2022/08/08 05:12:42;;;;;;;1999.90;999.90;;;14.40;99.90;;;;;;5074842;28;20055;-60
2022/08/08 05:15:09;;;;;;;1999.90;999.90;;;14.40;99.90;;;;;;5074740;28;20508;-59
2022/08/08 05:17:35;;;;;;;1999.90;999.90;;;14.50;99.90;;;;;;5074635;28;20120;-60
2022/08/08 05:20:01;;;;;;;1999.90;999.90;;;14.50;99.90;;;;;;5055055;28;20119;-60
2022/08/08 05:22:32;;;;;;;1999.90;999.90;;;14.60;99.90;;;;;;5036607;28;20076;-60
2022/08/08 05:25:00;;;;;;;1999.90;999.90;;;14.60;99.90;;;;;;5054042;28;20060;-60
2022/08/08 05:27:27;;;;;;;1999.90;999.90;;;14.60;99.90;;;;;;5054398;28;20041;-60
2022/08/08 05:29:52;;;;;;;1999.90;999.90;;;14.70;99.90;;;;;;5054805;28;20040;-60
2022/08/08 05:32:23;;;;;;;1999.90;999.90;;;14.80;99.90;;;;;;5064380;28;20081;-59
2022/08/08 05:34:50;;;;;;;1999.90;999.90;;;14.90;99.90;;;;;;5057839;28;20097;-60
2022/08/08 05:37:27;;;;;;;1999.90;999.90;;;14.90;99.90;;;;;;5075130;28;20132;-60
2022/08/08 05:39:54;;;;;;;1999.90;999.90;;;14.90;99.90;;;;;;5072096;28;20059;-60
2022/08/08 05:42:41;;;;;;;1999.90;999.90;;;15.00;99.90;;;;;;5037478;28;20053;-60
2022/08/08 05:45:09;;;;;;;1999.90;999.90;;;15.10;99.90;;;;;;5070880;28;20036;-60
2022/08/08 05:47:37;;;;;;;1999.90;999.90;;;15.10;99.90;;;;;;5054486;28;20098;-59
2022/08/08 05:50:10;;;;;;;1999.90;999.90;;;15.10;99.90;;;;;;5071407;28;20037;-60
2022/08/08 05:52:37;;;;;;;1999.90;999.90;;;15.10;99.90;;;;;;5053992;28;20060;-60
2022/08/08 05:55:05;;;;;;;1999.90;999.90;;;15.30;99.90;;;;;;5037940;28;20133;-60
2022/08/08 05:57:34;;;;;;;1999.90;999.90;;;15.30;99.90;;;;;;5054786;28;20049;-60
2022/08/08 06:00:06;;;;;;;1999.90;999.90;;;15.40;99.90;;;;;;5053582;28;20055;-60
2022/08/08 06:05:45;;;;;;;1999.90;999.90;;;15.60;99.90;;;;;;5034736;28;20049;-60
2022/08/08 06:08:13;;;;;;;1999.90;999.90;;;15.70;99.90;;;;;;5064509;28;20076;-60
2022/08/08 06:10:41;;;;;;;1999.90;999.90;;;15.70;99.90;;;;;;5071109;28;20044;-60
2022/08/08 06:13:09;;;;;;;1999.90;999.90;;;15.80;99.90;;;;;;5053851;28;20049;-60
2022/08/08 06:15:37;;;;;;;1999.90;999.90;;;15.80;99.90;;;;;;5055873;28;20048;-59
2022/08/08 06:18:04;;;;;;;1999.90;999.90;;;15.90;99.90;;;;;;5059615;28;20059;-59
2022/08/08 06:20:30;;;;;;;1999.90;999.90;;;16.00;99.90;;;;;;5071714;28;20147;-60
2022/08/08 06:22:56;;;;;;;1999.90;999.90;;;16.10;99.90;;;;;;5056787;28;20113;-59
2022/08/08 06:25:23;;;;;;;1999.90;999.90;;;16.20;99.90;;;;;;5067308;28;20084;-60
2022/08/08 06:27:54;;;;;;;1999.90;999.90;;;16.30;99.90;;;;;;5077475;28;20040;-60
2022/08/08 06:30:21;;;;;;;1999.90;999.90;;;16.40;99.90;;;;;;5078418;28;20044;-60
2022/08/08 06:32:55;;;;;;;1999.90;999.90;;;16.50;99.90;;;;;;5068918;28;20055;-60
2022/08/08 06:35:23;;;;;;;1999.90;999.90;;;16.60;99.90;;;;;;5057497;28;20040;-60
2022/08/08 06:37:58;;;;;;;1999.90;999.90;;;16.80;99.90;;;;;;5057770;28;20032;-60
2022/08/08 06:40:31;;;;;;;1999.90;999.90;;;16.90;99.90;;;;;;5053842;28;20091;-60
2022/08/08 06:43:04;;;;;;;1999.90;999.90;;;17.00;99.90;;;;;;5046415;28;20068;-60
2022/08/08 06:45:38;;;;;;;1999.90;999.90;;;17.20;99.90;;;;;;5074558;28;20397;-60
2022/08/08 06:48:05;;;;;;;1999.90;999.90;;;17.30;99.90;;;;;;5056924;28;20128;-60
2022/08/08 06:50:35;;;;;;;1999.90;999.90;;;17.40;99.90;;;;;;5057762;28;20478;-60
2022/08/08 06:53:04;;;;;;;1999.90;999.90;;;17.60;99.90;;;;;;5074211;28;20075;-60
2022/08/08 06:55:30;;;;;;;1999.90;999.90;;;17.70;99.90;;;;;;5074708;28;20044;-60
2022/08/08 06:57:56;;;;;;;1999.90;999.90;;;18.00;99.90;;;;;;5075646;28;20044;-60
2022/08/08 07:00:23;;;;;;;1999.90;999.90;;;18.40;99.90;;;;;;5047587;28;20044;-60
2022/08/08 07:02:52;;;;;;;1999.90;999.90;;;18.70;99.90;;;;;;5063272;28;20041;-60
2022/08/08 07:05:23;;;;;;;1999.90;999.90;;;19.00;99.90;;;;;;5057754;28;20051;-60
2022/08/08 07:07:52;;;;;;;1999.90;999.90;;;19.10;99.90;;;;;;5057484;28;20049;-60
2022/08/08 07:10:23;;;;;;;1999.90;999.90;;;19.10;99.90;;;;;;5072151;28;20442;-60
2022/08/08 07:13:03;;;;;;;1999.90;999.90;;;19.10;99.90;;;;;;5077609;28;20085;-60
2022/08/08 07:15:35;;;;;;;1999.90;999.90;;;19.10;99.90;;;;;;5071866;28;20086;-60
2022/08/08 07:18:05;;;;;;;1999.90;999.90;;;19.00;99.90;;;;;;5039214;28;20045;-60
2022/08/08 07:20:37;;;;;;;1999.90;999.90;;;19.00;99.90;;;;;;5074032;28;20153;-60
2022/08/08 07:23:11;;;;;;;1999.90;999.90;;;18.90;99.90;;;;;;5074206;28;20518;-60
2022/08/08 07:25:40;;;;;;;1999.90;999.90;;;19.00;99.90;;;;;;5052556;28;20053;-60
2022/08/08 07:28:08;;;;;;;1999.90;999.90;;;19.20;99.90;;;;;;5059279;28;20048;-60
2022/08/08 07:30:37;;;;;;;1999.90;999.90;;;19.30;99.90;;;;;;5055572;28;20747;-60
2022/08/08 07:33:05;;;;;;;1999.90;999.90;;;19.50;99.90;;;;;;5067324;28;20486;-60
2022/08/08 07:35:33;;;;;;;1999.90;999.90;;;19.70;99.90;;;;;;5073498;28;20037;-60
2022/08/08 07:37:59;;;;;;;1999.90;999.90;;;19.90;99.90;;;;;;5074118;28;20469;-60
2022/08/08 07:40:42;;;;;;;1999.90;999.90;;;20.10;99.90;;;;;;5056243;28;20507;-60
2022/08/08 07:43:11;;;;;;;1999.90;999.90;;;20.00;99.90;;;;;;5056750;28;20048;-60
2022/08/08 07:45:44;;;;;;;1999.90;999.90;;;19.80;99.90;;;;;;5071461;28;20036;-60
2022/08/08 07:48:10;;;;;;;1999.90;999.90;;;19.60;99.90;;;;;;5076599;28;20127;-60
2022/08/08 07:50:37;;;;;;;1999.90;999.90;;;19.50;99.90;;;;;;5056144;28;20120;-60
2022/08/08 07:53:17;;;;;;;1999.90;999.90;;;19.50;99.90;;;;;;5056122;28;20411;-60
2022/08/08 07:55:46;;;;;;;1999.90;999.90;;;19.40;99.90;;;;;;5037219;28;20056;-60
2022/08/08 07:58:20;;;;;;;1999.90;999.90;;;19.40;99.90;;;;;;5056848;28;20379;-60
2022/08/08 08:00:51;;;;;;;1999.90;999.90;;;19.40;99.90;;;;;;5055828;28;20053;-60
2022/08/08 08:03:29;;;;;;;1999.90;999.90;;;19.40;99.90;;;;;;5063116;28;20053;-61
2022/08/08 08:05:59;;;;;;;1999.90;999.90;;;19.50;99.90;;;;;;5055391;28;20148;-60
2022/08/08 08:08:39;;;;;;;1999.90;999.90;;;19.50;99.90;;;;;;5052936;28;20080;-60
2022/08/08 08:11:12;;;;;;;1999.90;999.90;;;19.60;99.90;;;;;;5048048;28;20050;-60
2022/08/08 08:13:41;;;;;;;1999.90;999.90;;;19.60;99.90;;;;;;5057524;28;20044;-60
2022/08/08 08:16:12;;;;;;;1999.90;999.90;;;19.70;99.90;;;;;;5055850;28;20102;-60
2022/08/08 08:18:46;;;;;;;1999.90;999.90;;;19.70;99.90;;;;;;5056428;28;20044;-60
2022/08/08 08:21:14;;;;;;;1999.90;999.90;;;19.70;99.90;;;;;;5071533;28;20048;-60
2022/08/08 08:23:40;;;;;;;1999.90;999.90;;;19.60;99.90;;;;;;5075988;28;20055;-60
2022/08/08 08:26:07;;;;;;;1999.90;999.90;;;19.60;99.90;;;;;;5076198;28;20044;-60
2022/08/08 08:28:33;;;;;;;1999.90;999.90;;;19.60;99.90;;;;;;5070872;28;20032;-60
2022/08/08 08:31:03;;;;;;;1999.90;999.90;;;19.60;99.90;;;;;;5055397;28;20072;-60
2022/08/08 08:33:31;;;;;;;1999.90;999.90;;;19.60;99.90;;;;;;5064083;28;20419;-60
2022/08/08 08:36:00;;;;;;;1999.90;999.90;;;19.60;99.90;;;;;;5055148;28;20077;-61
2022/08/08 08:38:26;;;;;;;1999.90;999.90;;;19.60;99.90;;;;;;5055025;28;20478;-60
2022/08/08 08:40:58;;;;;;;1999.90;999.90;;;19.70;99.90;;;;;;5054505;28;20091;-60
2022/08/08 08:43:26;;;;;;;1999.90;999.90;;;19.80;99.90;;;;;;5039031;28;20044;-60
2022/08/08 08:45:54;;;;;;;1999.90;999.90;;;19.80;99.90;;;;;;5053431;28;20119;-59
2022/08/08 08:48:21;;;;;;;1999.90;999.90;;;19.90;99.90;;;;;;5046675;28;20118;-60
2022/08/08 08:50:51;;;;;;;1999.90;999.90;;;20.00;99.90;;;;;;5057239;28;20083;-60
2022/08/08 08:53:19;;;;;;;1999.90;999.90;;;20.20;99.90;;;;;;5053202;28;20083;-60
2022/08/08 08:55:45;;;;;;;1999.90;999.90;;;20.20;99.90;;;;;;5044781;28;20057;-60
2022/08/08 08:58:32;;;;;;;1999.90;999.90;;;20.20;99.90;;;;;;5058399;28;20098;-60
2022/08/08 09:01:00;;;;;;;1999.90;999.90;;;20.40;99.90;;;;;;5051320;28;20041;-60
2022/08/08 09:03:28;;;;;;;1999.90;999.90;;;20.50;99.90;;;;;;5052969;28;20040;-60
2022/08/08 09:05:55;;;;;;;1999.90;999.90;;;20.70;99.90;;;;;;5034991;28;20049;-60
2022/08/08 09:08:23;;;;;;;1999.90;999.90;;;20.80;99.90;;;;;;5057271;28;20044;-60
2022/08/08 09:10:50;;;;;;;1999.90;999.90;;;20.90;99.90;;;;;;5074506;28;20040;-60
2022/08/08 09:13:16;;;;;;;1999.90;999.90;;;21.00;99.90;;;;;;5057474;28;20060;-60
2022/08/08 09:15:43;;;;;;;1999.90;999.90;;;20.90;99.90;;;;;;5054108;28;20040;-60
2022/08/08 09:18:12;;;;;;;1999.90;999.90;;;20.90;99.90;;;;;;5054321;28;20041;-60
2022/08/08 09:20:40;;;;;;;1999.90;999.90;;;21.10;99.90;;;;;;5054552;28;20044;-60
2022/08/08 09:23:07;;;;;;;1999.90;999.90;;;21.10;99.90;;;;;;5059160;28;20048;-60
2022/08/08 09:25:36;;;;;;;1999.90;999.90;;;21.20;99.90;;;;;;5046664;28;20154;-61
2022/08/08 09:28:02;;;;;;;1999.90;999.90;;;21.30;99.90;;;;;;5054651;28;20448;-60
2022/08/08 09:30:31;;;;;;;1999.90;999.90;;;21.50;99.90;;;;;;5045193;28;20052;-60
2022/08/08 09:32:58;;;;;;;1999.90;999.90;;;22.00;99.90;;;;;;5036909;28;20052;-60
2022/08/08 09:35:27;;;;;;;1999.90;999.90;;;22.60;99.90;;;;;;5035353;28;20041;-60
2022/08/08 09:37:59;;;;;;;1999.90;999.90;;;23.10;99.90;;;;;;5053960;28;20058;-61
2022/08/08 09:40:30;;;;;;;1999.90;999.90;;;23.40;99.90;;;;;;5054353;28;20054;-60
2022/08/08 09:43:15;;;;;;;1999.90;999.90;;;23.80;99.90;;;;;;5054110;28;20063;-60
2022/08/08 09:46:03;;;;;;;1999.90;999.90;;;23.90;99.90;;;;;;5051561;28;20384;-60
2022/08/08 09:48:31;;;;;;;1999.90;999.90;;;23.50;99.90;;;;;;5066189;28;20482;-60
2022/08/08 09:50:58;;;;;;;1999.90;999.90;;;23.40;99.90;;;;;;5074054;28;20087;-61
2022/08/08 09:53:35;;;;;;;1999.90;999.90;;;23.00;99.90;;;;;;5074388;28;20044;-60
2022/08/08 09:56:03;;;;;;;1999.90;999.90;;;22.50;99.90;;;;;;5093564;28;20051;-60
2022/08/08 09:58:37;;;;;;;1999.90;999.90;;;21.90;99.90;;;;;;5077343;28;20044;-61
2022/08/08 10:01:07;;;;;;;1999.90;999.90;;;21.40;99.90;;;;;;5096753;28;20075;-61
2022/08/08 10:03:35;;;;;;;1999.90;999.90;;;21.10;99.90;;;;;;5077002;28;20048;-60
2022/08/08 10:06:13;;;;;;;1999.90;999.90;;;20.80;99.90;;;;;;5080874;28;20405;-60
2022/08/08 10:08:45;;;;;;;1999.90;999.90;;;20.60;99.90;;;;;;5073778;28;20387;-60
2022/08/08 10:11:11;;;;;;;1999.90;999.90;;;20.40;99.90;;;;;;5076151;28;20037;-60
2022/08/08 10:13:37;;;;;;;1999.90;999.90;;;20.40;99.90;;;;;;5055793;28;20067;-60
2022/08/08 10:16:03;;;;;;;1999.90;999.90;;;20.30;99.90;;;;;;5057831;28;20578;-60
2022/08/08 10:18:34;;;;;;;1999.90;999.90;;;20.30;99.90;;;;;;5076365;28;20478;-60
2022/08/08 10:21:03;;;;;;;1999.90;999.90;;;20.30;99.90;;;;;;5075302;28;20056;-60
2022/08/08 10:23:41;;;;;;;1999.90;999.90;;;20.30;99.90;;;;;;5075098;28;20552;-60
2022/08/08 10:26:18;;;;;;;1999.90;999.90;;;20.30;99.90;;;;;;5073507;28;20105;-61
2022/08/08 10:29:00;;;;;;;1999.90;999.90;;;20.40;99.90;;;;;;5076425;28;20115;-60
2022/08/08 10:34:19;;;;;;;1999.90;999.90;;;20.50;99.90;;;;;;5095381;28;20040;-60
2022/08/08 10:36:46;;;;;;;1999.90;999.90;;;20.50;99.90;;;;;;5084220;28;20048;-60
2022/08/08 10:39:20;;;;;;;1999.90;999.90;;;20.60;99.90;;;;;;5073275;28;20044;-61
2022/08/08 10:41:58;;;;;;;1999.90;999.90;;;20.70;99.90;;;;;;5076857;28;20060;-60
2022/08/08 10:44:34;;;;;;;1999.90;999.90;;;20.70;99.90;;;;;;5057352;28;20102;-60
2022/08/08 10:47:08;;;;;;;1999.90;999.90;;;20.70;99.90;;;;;;5057770;28;20514;-60
2022/08/08 10:49:34;;;;;;;1999.90;999.90;;;20.80;99.90;;;;;;5056860;28;20053;-60
2022/08/08 10:52:00;;;;;;;1999.90;999.90;;;20.90;99.90;;;;;;5057132;28;20067;-60
2022/08/08 10:54:25;;;;;;;1999.90;999.90;;;21.00;99.90;;;;;;5074917;28;20040;-60
2022/08/08 10:56:58;;;;;;;1999.90;999.90;;;21.10;99.90;;;;;;5075462;28;20557;-60
2022/08/08 10:59:24;;;;;;;1999.90;999.90;;;21.20;99.90;;;;;;5083422;28;20055;-60
2022/08/08 11:01:50;;;;;;;1999.90;999.90;;;21.30;99.90;;;;;;5089751;28;20048;-60
2022/08/08 11:04:16;;;;;;;1999.90;999.90;;;21.30;99.90;;;;;;5075167;28;20032;-60
2022/08/08 11:06:42;;;;;;;1999.90;999.90;;;21.40;99.90;;;;;;5074573;28;20101;-60
2022/08/08 11:09:10;;;;;;;1999.90;999.90;;;21.40;99.90;;;;;;5056480;28;20124;-60
2022/08/08 11:11:39;;;;;;;1999.90;999.90;;;21.50;99.90;;;;;;5072142;28;20072;-60
2022/08/08 11:14:06;;;;;;;1999.90;999.90;;;21.50;99.90;;;;;;5074982;28;20048;-60
2022/08/08 11:16:33;;;;;;;1999.90;999.90;;;21.60;99.90;;;;;;5077583;28;20040;-61
2022/08/08 11:19:00;;;;;;;1999.90;999.90;;;21.60;99.90;;;;;;5095584;28;20383;-60
2022/08/08 11:21:29;;;;;;;1999.90;999.90;;;21.60;99.90;;;;;;5095071;28;20056;-60
2022/08/08 11:23:58;;;;;;;1999.90;999.90;;;21.70;99.90;;;;;;5094724;28;20104;-60
2022/08/08 11:26:27;;;;;;;1999.90;999.90;;;21.80;99.90;;;;;;5064864;28;20049;-60
2022/08/08 11:28:56;;;;;;;1999.90;999.90;;;21.80;99.90;;;;;;5074951;28;20102;-61
2022/08/08 11:31:26;;;;;;;1999.90;999.90;;;21.90;99.90;;;;;;5074355;28;20036;-60
2022/08/08 11:33:54;;;;;;;1999.90;999.90;;;21.80;99.90;;;;;;5075248;28;20523;-61
2022/08/08 11:36:22;;;;;;;1999.90;999.90;;;21.90;99.90;;;;;;5094898;28;20036;-60
2022/08/08 11:38:48;;;;;;;1999.90;999.90;;;22.00;99.90;;;;;;5094144;28;20376;-61
2022/08/08 11:41:16;;;;;;;1999.90;999.90;;;22.00;99.90;;;;;;5074675;28;20137;-61
2022/08/08 11:43:44;;;;;;;1999.90;999.90;;;22.10;99.90;;;;;;5055106;28;20051;-60
2022/08/08 11:46:11;;;;;;;1999.90;999.90;;;22.10;99.90;;;;;;5074422;28;20483;-61
2022/08/08 11:48:38;;;;;;;1999.90;999.90;;;22.20;99.90;;;;;;5074696;28;20133;-61
2022/08/08 11:51:05;;;;;;;1999.90;999.90;;;22.20;99.90;;;;;;5072171;28;20540;-61
2022/08/08 11:53:31;;;;;;;1999.90;999.90;;;22.10;99.90;;;;;;5091230;28;20397;-60
2022/08/08 11:55:57;;;;;;;1999.90;999.90;;;22.10;99.90;;;;;;5094490;28;20383;-60
2022/08/08 11:58:34;;;;;;;1999.90;999.90;;;22.00;99.90;;;;;;5072882;28;20116;-61
2022/08/08 12:01:04;;;;;;;1999.90;999.90;;;22.10;99.90;;;;;;5077369;28;20101;-61
2022/08/08 12:03:33;;;;;;;1999.90;999.90;;;22.00;99.90;;;;;;5074163;28;20036;-61
2022/08/08 12:05:59;;;;;;;1999.90;999.90;;;22.00;99.90;;;;;;5072627;28;20186;-61
2022/08/08 12:08:33;;;;;;;1999.90;999.90;;;21.90;99.90;;;;;;5070941;28;20475;-60
2022/08/08 12:11:01;;;;;;;1999.90;999.90;;;21.80;99.90;;;;;;5056142;28;20059;-61
2022/08/08 12:13:27;;;;;;;1999.90;999.90;;;21.80;99.90;;;;;;5038647;28;20048;-61
2022/08/08 12:15:52;;;;;;;1999.90;999.90;;;21.80;99.90;;;;;;5074313;28;20440;-60
2022/08/08 12:18:20;;;;;;;1999.90;999.90;;;21.80;99.90;;;;;;5074954;28;20037;-61
2022/08/08 12:20:46;;;;;;;1999.90;999.90;;;21.80;99.90;;;;;;5070550;28;20502;-61
2022/08/08 12:23:12;;;;;;;1999.90;999.90;;;21.90;99.90;;;;;;5074059;28;20088;-60
2022/08/08 12:25:39;;;;;;;1999.90;999.90;;;21.90;99.90;;;;;;5073832;28;20471;-60
2022/08/08 12:28:11;;;;;;;1999.90;999.90;;;22.00;99.90;;;;;;5072080;28;20044;-60
2022/08/08 12:30:37;;;;;;;1999.90;999.90;;;22.10;99.90;;;;;;5073958;28;20066;-60
2022/08/08 12:33:03;;;;;;;1999.90;999.90;;;22.20;99.90;;;;;;5038575;28;20056;-61
2022/08/08 12:35:38;;;;;;;1999.90;999.90;;;22.30;99.90;;;;;;5055809;28;20052;-61
2022/08/08 12:38:07;;;;;;;1999.90;999.90;;;22.30;99.90;;;;;;5075762;28;20036;-60